Time;durP1;ratioP1;P1;durP2;ratioP2;P2;SDS_P1;SDS_P2;PMS_P1;PMS_P2;Temp;Humidity;BMP_temperature;BMP_pressure;BME280_temperature;BME280_humidity;BME280_pressure;Samples;Min_cycle;Max_cycle;Signal;HPM_P1;HPM_P2
2022/12/01 00:00:00;;;;;;;6.23;3.90;;;2.60;99.90;3.40;97198.00;;;;5090414;28;20422;-67
2022/12/01 00:02:50;;;;;;;4.40;2.67;;;2.70;99.90;3.30;97186.00;;;;5091763;28;20433;-68
2022/12/01 00:05:39;;;;;;;2.50;2.27;;;3.30;99.90;3.40;97187.00;;;;5095811;28;20452;-68
2022/12/01 00:08:29;;;;;;;4.50;3.33;;;2.60;99.90;3.60;97196.00;;;;5091048;28;20421;-68
2022/12/01 00:11:17;;;;;;;3.93;2.57;;;2.70;99.90;3.60;97199.00;;;;5090127;28;20822;-67
2022/12/01 00:14:06;;;;;;;2.97;2.67;;;2.70;99.90;3.60;97188.00;;;;5096783;28;20913;-68
2022/12/01 00:16:55;;;;;;;5.23;3.40;;;2.80;99.90;3.60;97196.00;;;;5097047;28;20452;-68
2022/12/01 00:19:45;;;;;;;4.70;3.10;;;2.90;99.90;3.60;97186.00;;;;5091029;28;21057;-68
2022/12/01 00:22:34;;;;;;;3.07;2.53;;;2.60;99.90;3.60;97183.00;;;;5087005;28;20461;-67
2022/12/01 00:25:23;;;;;;;8.03;3.20;;;2.70;99.90;3.60;97191.00;;;;5091580;28;20450;-68
2022/12/01 00:28:11;;;;;;;3.60;2.53;;;2.70;99.90;3.50;97199.00;;;;5099908;28;20413;-68
2022/12/01 00:31:00;;;;;;;4.70;3.37;;;2.70;99.90;3.60;97190.00;;;;5112013;28;20447;-67
2022/12/01 00:33:49;;;;;;;4.37;3.27;;;2.70;99.90;3.50;97189.00;;;;5111762;28;20421;-68
2022/12/01 00:36:39;;;;;;;5.07;3.80;;;2.70;99.90;3.60;97198.00;;;;5098123;28;20440;-68
2022/12/01 00:39:28;;;;;;;3.00;2.67;;;2.70;99.90;3.50;97193.00;;;;5093275;28;21074;-68
2022/12/01 00:42:19;;;;;;;3.47;3.17;;;2.70;99.90;3.60;97197.00;;;;5089456;28;20445;-68
2022/12/01 00:45:10;;;;;;;4.90;3.27;;;2.70;99.90;3.60;97199.00;;;;5084477;28;20810;-68
2022/12/01 00:47:59;;;;;;;5.17;3.80;;;2.70;99.90;3.50;97188.00;;;;5089265;28;20438;-68
2022/12/01 00:50:49;;;;;;;5.07;4.17;;;2.70;99.90;3.50;97203.00;;;;5088937;28;20967;-68
2022/12/01 00:53:39;;;;;;;3.77;3.17;;;2.70;99.90;3.60;97201.00;;;;5087122;28;20418;-68
2022/12/01 00:56:27;;;;;;;5.50;3.57;;;2.80;99.90;3.50;97193.00;;;;5089066;28;20962;-68
2022/12/01 00:59:16;;;;;;;6.90;4.37;;;2.70;99.90;3.60;97192.00;;;;5087558;28;20430;-68
2022/12/01 01:02:07;;;;;;;4.73;4.23;;;2.80;99.90;3.70;97203.00;;;;5090022;28;20441;-68
2022/12/01 01:04:55;;;;;;;4.13;3.30;;;2.80;99.90;3.70;97204.00;;;;5089534;28;20436;-68
2022/12/01 01:07:44;;;;;;;4.03;3.10;;;3.00;99.90;3.50;97210.00;;;;5089205;28;20928;-68
2022/12/01 01:10:38;;;;;;;4.37;2.57;;;2.90;99.90;3.60;97206.00;;;;5089608;28;20441;-68
2022/12/01 01:13:27;;;;;;;5.00;3.17;;;2.70;99.90;3.50;97211.00;;;;5092515;28;20440;-68
2022/12/01 01:16:19;;;;;;;8.50;3.53;;;2.70;99.90;3.60;97198.00;;;;5099280;28;20434;-68
2022/12/01 01:19:08;;;;;;;3.80;3.47;;;2.70;99.90;3.60;97196.00;;;;5086271;28;20422;-68
2022/12/01 01:21:57;;;;;;;3.10;2.80;;;2.70;99.90;3.50;97202.00;;;;5091320;28;20839;-68
2022/12/01 01:24:46;;;;;;;3.00;2.33;;;2.70;99.90;3.40;97200.00;;;;5108958;28;21304;-68
2022/12/01 01:27:36;;;;;;;3.50;2.73;;;2.80;99.90;3.60;97184.00;;;;5109578;28;20497;-68
2022/12/01 01:30:24;;;;;;;2.53;2.33;;;2.70;99.90;3.80;97197.00;;;;5108560;28;20448;-68
2022/12/01 01:33:13;;;;;;;5.50;3.40;;;2.70;99.90;3.90;97204.00;;;;5110644;28;20418;-68
2022/12/01 01:36:03;;;;;;;3.70;2.63;;;2.80;99.90;4.00;97205.00;;;;5108115;28;20435;-67
2022/12/01 01:38:53;;;;;;;3.40;2.97;;;2.80;99.90;4.10;97201.00;;;;5095748;28;20403;-68
2022/12/01 01:41:42;;;;;;;3.13;2.83;;;2.80;99.90;4.00;97199.00;;;;5108299;28;20440;-68
2022/12/01 01:44:52;;;;;;;3.60;2.93;;;2.90;99.90;4.10;97193.00;;;;5092284;28;20413;-68
2022/12/01 01:47:41;;;;;;;3.33;2.67;;;2.80;99.90;4.00;97201.00;;;;5108249;28;20464;-68
2022/12/01 01:50:30;;;;;;;3.27;2.90;;;2.80;99.90;4.10;97201.00;;;;5109337;28;20452;-68
2022/12/01 01:53:19;;;;;;;4.87;2.80;;;2.90;99.90;4.00;97193.00;;;;5110279;28;20894;-68
2022/12/01 01:56:09;;;;;;;3.97;3.30;;;2.90;99.90;4.00;97192.00;;;;5108992;28;20417;-68
2022/12/01 01:58:59;;;;;;;4.70;4.10;;;2.90;99.90;4.10;97197.00;;;;5109493;28;20428;-68
2022/12/01 02:01:56;;;;;;;4.87;3.97;;;2.90;99.90;3.90;97200.00;;;;5108752;28;20429;-68
2022/12/01 02:04:50;;;;;;;5.73;3.87;;;2.90;99.90;4.00;97200.00;;;;5102153;28;20409;-68
2022/12/01 02:07:40;;;;;;;3.77;2.97;;;2.90;99.90;4.10;97209.00;;;;5098542;28;20979;-68
2022/12/01 02:10:50;;;;;;;4.43;2.93;;;2.90;99.90;4.10;97195.00;;;;5109246;28;20516;-68
2022/12/01 02:13:47;;;;;;;5.50;3.43;;;2.90;99.90;4.10;97201.00;;;;5104163;28;20422;-67
2022/12/01 02:16:46;;;;;;;6.00;4.47;;;2.90;99.90;4.10;97201.00;;;;5105728;28;20436;-67
2022/12/01 02:20:11;;;;;;;6.93;4.53;;;2.90;99.90;4.20;97202.00;;;;5103307;28;20409;-68
2022/12/01 02:23:29;;;;;;;6.80;4.37;;;3.00;99.90;4.20;97206.00;;;;5104532;28;20810;-67
2022/12/01 02:26:39;;;;;;;7.70;5.13;;;3.00;99.90;4.20;97210.00;;;;5107048;28;20467;-68
2022/12/01 02:30:08;;;;;;;5.03;3.90;;;3.00;99.90;4.30;97214.00;;;;5105772;28;20428;-68
2022/12/01 02:33:08;;;;;;;5.17;3.83;;;3.00;99.90;4.30;97211.00;;;;5110096;28;20428;-68
2022/12/01 02:36:04;;;;;;;5.30;3.63;;;3.10;99.90;4.40;97212.00;;;;5107147;28;20417;-68
2022/12/01 02:39:02;;;;;;;8.00;4.67;;;3.00;99.90;4.40;97206.00;;;;5105954;28;20409;-68
2022/12/01 02:41:57;;;;;;;5.63;3.77;;;3.10;99.90;4.40;97213.00;;;;5095826;28;20973;-68
2022/12/01 02:44:47;;;;;;;6.87;4.20;;;3.10;99.90;4.20;97204.00;;;;5094053;28;20417;-68
2022/12/01 02:47:38;;;;;;;4.10;3.50;;;3.10;99.90;4.20;97195.00;;;;5109908;28;20460;-68
2022/12/01 02:50:31;;;;;;;4.63;4.20;;;3.10;99.90;4.00;97199.00;;;;5111444;28;21014;-68
2022/12/01 02:53:20;;;;;;;3.27;2.50;;;3.00;99.90;4.00;97194.00;;;;5103595;28;20413;-68
2022/12/01 02:56:13;;;;;;;3.50;2.70;;;3.00;99.90;3.80;97200.00;;;;5099442;28;20420;-68
2022/12/01 02:59:02;;;;;;;2.53;2.33;;;3.00;99.90;3.70;97198.00;;;;5107888;28;20457;-68
2022/12/01 03:02:06;;;;;;;2.27;2.07;;;2.90;99.90;3.60;97199.00;;;;5107203;28;20429;-68
2022/12/01 03:05:04;;;;;;;2.10;1.83;;;2.80;99.90;3.70;97204.00;;;;5110940;28;20420;-68
2022/12/01 03:08:03;;;;;;;3.20;2.20;;;2.80;99.90;3.60;97192.00;;;;5110515;28;20476;-68
2022/12/01 03:10:54;;;;;;;2.10;2.00;;;2.80;99.90;3.70;97187.00;;;;5104688;28;20437;-68
2022/12/01 03:13:52;;;;;;;2.87;2.67;;;2.80;99.90;3.70;97187.00;;;;5092574;28;20414;-68
2022/12/01 03:16:49;;;;;;;2.90;2.70;;;2.80;99.90;3.70;97198.00;;;;5108053;28;20424;-67
2022/12/01 03:22:29;;;;;;;3.40;3.07;;;2.70;99.90;4.00;97196.00;;;;5086249;28;20617;-67
2022/12/01 03:25:20;;;;;;;2.67;2.47;;;2.80;99.90;3.80;97201.00;;;;5074684;28;20823;-66
2022/12/01 03:28:11;;;;;;;3.83;3.50;;;2.80;99.90;3.70;97194.00;;;;5089096;28;20447;-67
2022/12/01 03:31:12;;;;;;;3.87;3.33;;;2.70;99.90;3.90;97192.00;;;;5097063;28;20473;-67
2022/12/01 03:34:08;;;;;;;4.80;3.23;;;2.70;99.90;4.00;97189.00;;;;5096358;28;20770;-67
2022/12/01 03:37:01;;;;;;;4.73;3.07;;;2.80;99.90;4.00;97190.00;;;;5112543;28;21298;-67
2022/12/01 03:39:55;;;;;;;2.87;2.67;;;2.90;99.90;3.80;97191.00;;;;5117148;28;20416;-67
2022/12/01 03:42:53;;;;;;;3.70;2.93;;;2.80;99.90;3.70;97194.00;;;;5107736;28;20957;-66
2022/12/01 03:45:51;;;;;;;3.87;2.83;;;2.80;99.90;3.50;97186.00;;;;5106465;28;21113;-67
2022/12/01 03:48:41;;;;;;;3.40;3.10;;;2.60;99.90;3.50;97188.00;;;;5119632;28;20811;-67
2022/12/01 03:51:42;;;;;;;5.20;3.17;;;2.70;99.90;3.60;97187.00;;;;5112824;28;20443;-66
2022/12/01 03:54:43;;;;;;;4.80;3.30;;;2.70;99.90;3.50;97190.00;;;;5124725;28;20841;-66
2022/12/01 03:57:42;;;;;;;4.07;3.57;;;2.60;99.90;3.40;97192.00;;;;5112553;28;20411;-66
2022/12/01 04:00:32;;;;;;;5.80;3.70;;;2.60;99.90;3.60;97191.00;;;;5126561;28;21009;-67
2022/12/01 04:03:25;;;;;;;4.10;3.53;;;2.60;99.90;3.60;97185.00;;;;5126186;28;20428;-66
2022/12/01 04:06:13;;;;;;;3.73;3.43;;;2.80;99.90;3.80;97197.00;;;;5126313;28;20449;-66
2022/12/01 04:09:02;;;;;;;3.47;3.27;;;2.70;99.90;3.80;97190.00;;;;5126364;28;21225;-66
2022/12/01 04:15:01;;;;;;;3.30;3.00;;;2.70;99.90;3.70;97193.00;;;;5118714;28;20924;-66
2022/12/01 04:17:49;;;;;;;3.07;2.70;;;2.70;99.90;3.70;97194.00;;;;5110812;28;20432;-66
2022/12/01 04:20:38;;;;;;;3.50;3.17;;;2.70;99.90;3.60;97185.00;;;;5107995;28;20451;-66
2022/12/01 04:26:35;;;;;;;3.07;2.77;;;2.60;99.90;3.70;97195.00;;;;5117169;28;20432;-67
2022/12/01 04:29:23;;;;;;;2.50;2.30;;;2.70;99.90;3.80;97197.00;;;;5116437;28;20431;-66
2022/12/01 04:32:14;;;;;;;3.37;2.97;;;2.70;99.90;3.90;97201.00;;;;5108132;28;20804;-66
2022/12/01 04:35:02;;;;;;;4.20;3.00;;;2.70;99.90;3.70;97201.00;;;;5108386;28;20443;-66
2022/12/01 04:37:51;;;;;;;3.23;2.63;;;2.70;99.90;3.90;97196.00;;;;5110771;28;20413;-66
2022/12/01 04:40:40;;;;;;;3.53;2.93;;;2.70;99.90;3.70;97196.00;;;;5112073;28;20447;-66
2022/12/01 04:43:28;;;;;;;3.40;3.10;;;2.70;99.90;3.60;97197.00;;;;5111733;28;20421;-66
2022/12/01 04:46:17;;;;;;;1.90;1.80;;;2.70;99.90;3.40;97192.00;;;;5112027;28;20424;-66
2022/12/01 04:49:07;;;;;;;3.37;2.60;;;2.60;99.90;3.50;97189.00;;;;5104854;28;20424;-67
2022/12/01 04:51:56;;;;;;;2.80;2.50;;;2.60;99.90;3.60;97188.00;;;;5100340;28;20461;-67
2022/12/01 04:54:45;;;;;;;3.07;2.77;;;2.60;99.90;3.60;97193.00;;;;5105472;28;20409;-66
2022/12/01 04:57:33;;;;;;;2.50;2.20;;;2.50;99.90;3.50;97186.00;;;;5097689;28;20443;-66
2022/12/01 05:00:22;;;;;;;2.97;2.77;;;2.50;99.90;3.40;97183.00;;;;5098723;28;20441;-67
2022/12/01 05:03:11;;;;;;;2.73;2.53;;;2.50;99.90;3.60;97186.00;;;;5097478;28;20422;-67
2022/12/01 05:06:06;;;;;;;3.27;2.83;;;2.50;99.90;3.80;97189.00;;;;5089914;28;20417;-67
2022/12/01 05:08:58;;;;;;;2.70;2.47;;;2.50;99.90;3.80;97194.00;;;;5105041;28;20417;-67
2022/12/01 05:11:47;;;;;;;2.57;2.37;;;2.60;99.90;3.70;97198.00;;;;5093121;28;20444;-67
2022/12/01 05:14:36;;;;;;;4.57;2.50;;;2.50;99.90;3.70;97186.00;;;;5109229;28;20811;-67
2022/12/01 05:17:24;;;;;;;4.83;2.13;;;2.60;99.90;3.70;97190.00;;;;5108668;28;20502;-67
2022/12/01 05:23:30;;;;;;;2.50;2.30;;;2.70;99.90;3.60;97176.00;;;;5107506;28;20424;-66
2022/12/01 05:26:19;;;;;;;3.00;2.73;;;2.40;99.90;3.80;97181.00;;;;5100818;28;20440;-67
2022/12/01 05:29:08;;;;;;;18.47;12.77;;;2.50;99.90;3.80;97184.00;;;;5100286;28;20425;-66
2022/12/01 05:31:57;;;;;;;3.33;3.03;;;2.50;99.90;3.70;97172.00;;;;5096102;28;20527;-66
2022/12/01 05:34:45;;;;;;;1.80;1.70;;;2.50;99.90;3.60;97173.00;;;;5103084;28;20812;-67
2022/12/01 05:37:34;;;;;;;2.93;2.00;;;2.60;99.90;3.40;97180.00;;;;5094652;28;20425;-66
2022/12/01 05:40:24;;;;;;;1.53;1.33;;;2.40;99.90;3.30;97176.00;;;;5109760;28;20452;-67
2022/12/01 05:43:13;;;;;;;3.00;2.67;;;2.40;99.90;3.50;97183.00;;;;5106840;28;20452;-67
2022/12/01 05:46:02;;;;;;;1.83;1.73;;;2.40;99.90;3.60;97183.00;;;;5099730;28;20436;-67
2022/12/01 05:48:51;;;;;;;1.93;1.83;;;2.40;99.90;3.60;97183.00;;;;5098395;28;20430;-67
2022/12/01 05:51:39;;;;;;;2.80;2.47;;;2.40;99.90;3.60;97185.00;;;;5097189;28;20443;-67
2022/12/01 05:54:30;;;;;;;2.40;1.80;;;2.60;99.90;3.60;97183.00;;;;5099219;28;20424;-67
2022/12/01 05:57:20;;;;;;;2.87;2.30;;;2.40;99.90;3.60;97169.00;;;;5105664;28;20432;-67
2022/12/01 06:00:11;;;;;;;2.37;2.17;;;2.40;99.90;3.60;97183.00;;;;5106578;28;20444;-67
2022/12/01 06:03:00;;;;;;;2.33;2.10;;;2.40;99.90;3.50;97179.00;;;;5104539;28;20464;-67
2022/12/01 06:05:49;;;;;;;2.93;2.63;;;2.30;99.90;3.50;97183.00;;;;5107389;28;20793;-67
2022/12/01 06:08:38;;;;;;;3.27;2.70;;;2.30;99.90;3.50;97193.00;;;;5106350;28;20827;-67
2022/12/01 06:11:27;;;;;;;2.50;2.27;;;2.30;99.90;3.60;97186.00;;;;5099901;28;20461;-66
2022/12/01 06:14:17;;;;;;;6.80;3.47;;;2.30;99.90;3.60;97187.00;;;;5108471;28;20436;-66
2022/12/01 06:17:06;;;;;;;3.73;2.73;;;2.30;99.90;3.50;97194.00;;;;5096439;28;20433;-66
2022/12/01 06:19:54;;;;;;;3.87;3.57;;;2.50;99.90;3.50;97193.00;;;;5102937;28;20838;-66
2022/12/01 06:22:43;;;;;;;5.53;3.90;;;2.20;99.90;3.50;97202.00;;;;5094998;28;20825;-66
2022/12/01 06:25:32;;;;;;;4.60;4.20;;;2.30;99.90;3.40;97198.00;;;;5106215;28;20425;-66
2022/12/01 06:28:20;;;;;;;3.77;3.20;;;2.30;99.90;3.50;97186.00;;;;5101754;28;20437;-66
2022/12/01 06:31:11;;;;;;;4.30;3.80;;;2.30;99.90;3.60;97202.00;;;;5100151;28;20445;-66
2022/12/01 06:33:59;;;;;;;4.43;3.67;;;2.30;99.90;3.40;97195.00;;;;5106060;28;20420;-65
2022/12/01 06:36:48;;;;;;;6.20;4.10;;;2.40;99.90;3.40;97199.00;;;;5103866;28;20405;-66
2022/12/01 06:39:37;;;;;;;4.27;3.20;;;2.20;99.90;3.40;97203.00;;;;5109390;28;20433;-66
2022/12/01 06:42:29;;;;;;;3.40;3.10;;;2.40;99.90;3.30;97192.00;;;;5106224;28;20455;-66
2022/12/01 06:45:17;;;;;;;8.13;2.80;;;2.20;99.90;3.20;97199.00;;;;5105749;28;20424;-66
2022/12/01 06:48:08;;;;;;;3.63;2.60;;;2.30;99.90;3.30;97207.00;;;;5107108;28;20437;-66
2022/12/01 06:50:57;;;;;;;19.87;12.10;;;2.20;99.90;3.40;97206.00;;;;5102661;28;20966;-66
2022/12/01 06:53:46;;;;;;;10.43;7.13;;;2.30;99.90;3.20;97209.00;;;;5106304;28;20436;-66
2022/12/01 06:56:35;;;;;;;4.23;3.17;;;2.20;99.90;3.10;97209.00;;;;5101416;28;20923;-66
2022/12/01 06:59:24;;;;;;;7.03;3.67;;;2.40;99.90;3.20;97212.00;;;;5102888;28;20413;-66
2022/12/01 07:02:13;;;;;;;5.20;4.03;;;2.10;99.90;3.20;97215.00;;;;5105965;28;20563;-66
2022/12/01 07:05:04;;;;;;;5.53;4.50;;;2.20;99.90;3.10;97226.00;;;;5105375;28;20416;-66
2022/12/01 07:07:52;;;;;;;3.13;2.83;;;2.20;99.90;3.10;97225.00;;;;5102144;28;21107;-66
2022/12/01 07:10:45;;;;;;;4.50;4.17;;;2.20;99.90;3.10;97233.00;;;;5102178;28;20510;-66
2022/12/01 07:13:34;;;;;;;3.00;2.73;;;2.20;99.90;3.20;97227.00;;;;5098783;28;20447;-66
2022/12/01 07:16:23;;;;;;;3.27;2.43;;;2.10;99.90;3.30;97231.00;;;;5104841;28;20425;-65
2022/12/01 07:19:11;;;;;;;3.03;2.47;;;2.10;99.90;3.20;97236.00;;;;5102772;28;20436;-67
2022/12/01 07:22:02;;;;;;;2.50;2.23;;;2.20;99.90;3.30;97236.00;;;;5107544;28;20440;-66
2022/12/01 07:24:51;;;;;;;4.20;3.13;;;2.20;99.90;3.50;97239.00;;;;5107280;28;20796;-67
2022/12/01 07:27:39;;;;;;;3.00;2.70;;;2.20;99.90;3.50;97245.00;;;;5102281;28;20560;-66
2022/12/01 07:30:28;;;;;;;4.13;3.70;;;2.20;99.90;3.50;97245.00;;;;5103488;28;20460;-67
2022/12/01 07:33:17;;;;;;;4.07;3.77;;;2.20;99.90;3.40;97241.00;;;;5103575;28;20436;-67
2022/12/01 07:36:08;;;;;;;4.43;4.00;;;2.20;99.90;3.40;97249.00;;;;5105483;28;20442;-66
2022/12/01 07:38:58;;;;;;;5.73;5.13;;;2.20;99.90;3.50;97253.00;;;;5102715;28;20482;-66
2022/12/01 07:41:47;;;;;;;7.67;4.70;;;2.20;99.90;3.50;97247.00;;;;5097007;28;20455;-67
2022/12/01 07:44:35;;;;;;;3.37;3.07;;;2.40;99.90;3.60;97259.00;;;;5094661;28;20437;-67
2022/12/01 07:47:24;;;;;;;9.20;3.60;;;2.30;99.90;3.40;97261.00;;;;5103554;28;20443;-66
2022/12/01 07:50:13;;;;;;;5.90;4.17;;;2.30;99.90;3.50;97261.00;;;;5097653;28;20979;-66
2022/12/01 07:53:01;;;;;;;8.17;3.77;;;2.20;99.90;3.40;97268.00;;;;5104837;28;20409;-66
2022/12/01 07:55:51;;;;;;;4.93;4.33;;;2.30;99.90;3.30;97267.00;;;;5099115;28;20412;-66
2022/12/01 07:58:40;;;;;;;5.43;4.90;;;2.30;99.90;3.30;97275.00;;;;5104529;28;20426;-66
2022/12/01 08:01:29;;;;;;;4.20;3.70;;;2.30;99.90;3.40;97273.00;;;;5108021;28;20440;-67
2022/12/01 08:04:18;;;;;;;6.60;5.87;;;2.30;99.90;3.40;97272.00;;;;5100587;28;20476;-67
2022/12/01 08:07:06;;;;;;;5.07;3.90;;;2.30;99.90;3.40;97271.00;;;;5101579;28;20412;-67
2022/12/01 08:09:55;;;;;;;6.77;4.57;;;2.10;99.90;3.30;97270.00;;;;5106417;28;20811;-67
2022/12/01 08:12:47;;;;;;;3.87;3.47;;;2.30;99.90;3.30;97284.00;;;;5105483;28;20438;-67
2022/12/01 08:15:36;;;;;;;5.33;4.57;;;2.30;99.90;3.20;97266.00;;;;5108250;28;20436;-67
2022/12/01 08:18:25;;;;;;;4.00;3.03;;;2.20;99.90;3.30;97272.00;;;;5098652;28;20413;-67
2022/12/01 08:21:16;;;;;;;6.50;4.87;;;2.20;99.90;3.30;97273.00;;;;5105046;28;20483;-67
2022/12/01 08:24:06;;;;;;;4.27;3.70;;;2.20;99.90;3.10;97262.00;;;;5108122;28;20471;-67
2022/12/01 08:26:54;;;;;;;3.87;2.90;;;2.20;99.90;3.10;97272.00;;;;5108546;28;20444;-67
2022/12/01 08:29:44;;;;;;;4.17;3.67;;;2.10;99.90;2.90;97268.00;;;;5109723;28;20842;-67
2022/12/01 08:32:33;;;;;;;4.43;2.80;;;2.10;99.90;2.90;97275.00;;;;5109456;28;20413;-67
2022/12/01 08:35:22;;;;;;;5.00;3.30;;;2.10;99.90;3.10;97266.00;;;;5109351;28;20408;-67
2022/12/01 08:38:11;;;;;;;3.40;2.93;;;2.00;99.90;3.10;97272.00;;;;5105074;28;20424;-67
2022/12/01 08:41:01;;;;;;;4.90;4.13;;;2.00;99.90;3.10;97280.00;;;;5108821;28;20845;-67
2022/12/01 08:43:50;;;;;;;4.53;3.70;;;2.10;99.90;3.10;97277.00;;;;5112111;28;20456;-67
2022/12/01 08:46:48;;;;;;;5.13;4.70;;;2.10;99.90;3.10;97270.00;;;;5107569;28;20431;-67
2022/12/01 08:49:36;;;;;;;3.67;2.70;;;2.00;99.90;3.20;97279.00;;;;5105056;28;20444;-67
2022/12/01 08:52:25;;;;;;;3.87;2.67;;;2.10;99.90;3.10;97278.00;;;;5109061;28;20416;-67
2022/12/01 08:55:14;;;;;;;3.13;2.50;;;2.10;99.90;3.20;97283.00;;;;5107043;28;20420;-67
2022/12/01 08:58:03;;;;;;;2.70;2.50;;;2.00;99.90;3.20;97283.00;;;;5106498;28;20433;-67
2022/12/01 09:00:51;;;;;;;1.93;1.83;;;2.10;99.90;3.30;97282.00;;;;5103286;28;20503;-68
2022/12/01 09:03:42;;;;;;;2.13;2.03;;;2.10;99.90;3.40;97291.00;;;;5102134;28;20475;-67
2022/12/01 09:06:33;;;;;;;2.50;2.30;;;2.40;99.90;3.50;97289.00;;;;5092507;28;20956;-67
2022/12/01 09:09:25;;;;;;;2.30;2.10;;;2.40;99.90;3.50;97293.00;;;;5100172;28;21177;-67
2022/12/01 09:12:14;;;;;;;3.10;2.67;;;2.30;99.90;3.70;97286.00;;;;5106759;28;20437;-67
2022/12/01 09:15:03;;;;;;;2.50;2.30;;;2.30;99.90;3.70;97299.00;;;;5107257;28;20436;-67
2022/12/01 09:17:52;;;;;;;2.47;2.27;;;2.40;99.90;3.80;97299.00;;;;5100605;28;20440;-67
2022/12/01 09:20:42;;;;;;;2.97;2.67;;;2.50;99.90;3.90;97294.00;;;;5104111;28;20492;-67
2022/12/01 09:23:30;;;;;;;2.47;2.27;;;2.50;99.90;3.90;97297.00;;;;5102818;28;20467;-67
2022/12/01 09:26:20;;;;;;;4.40;3.33;;;2.70;99.90;3.90;97292.00;;;;5102154;28;20479;-67
2022/12/01 09:29:12;;;;;;;3.33;3.03;;;2.60;99.90;4.00;97291.00;;;;5102421;28;20862;-66
2022/12/01 09:32:01;;;;;;;3.77;3.37;;;2.70;99.90;4.10;97280.00;;;;5106353;28;20482;-67
2022/12/01 09:34:51;;;;;;;3.37;3.07;;;2.70;99.90;4.10;97287.00;;;;5103528;28;20809;-66
2022/12/01 09:37:41;;;;;;;4.03;3.63;;;2.70;99.90;4.20;97284.00;;;;5101060;28;20445;-66
2022/12/01 09:40:35;;;;;;;4.63;3.97;;;2.80;99.90;4.10;97278.00;;;;5097807;28;20230;-67
2022/12/01 09:43:28;;;;;;;5.30;4.40;;;2.80;99.90;4.20;97286.00;;;;5106165;28;20226;-66
2022/12/01 09:46:22;;;;;;;4.07;3.77;;;2.80;99.90;4.20;97282.00;;;;5102061;28;20455;-66
2022/12/01 09:49:18;;;;;;;4.63;4.23;;;3.00;99.90;4.10;97271.00;;;;5105365;28;20433;-66
2022/12/01 09:52:11;;;;;;;3.87;3.57;;;2.90;99.90;4.10;97272.00;;;;5093316;28;20459;-67
2022/12/01 09:55:01;;;;;;;3.97;3.27;;;2.90;99.90;4.10;97273.00;;;;5103930;28;20448;-66
2022/12/01 09:57:53;;;;;;;3.97;3.63;;;2.90;99.90;4.10;97270.00;;;;5102210;28;20422;-66
2022/12/01 10:00:43;;;;;;;4.07;3.63;;;3.00;99.90;4.10;97263.00;;;;5102502;28;20433;-66
2022/12/01 10:03:39;;;;;;;4.30;3.90;;;3.00;99.90;4.20;97259.00;;;;5103338;28;20457;-67
2022/12/01 10:06:37;;;;;;;4.13;3.53;;;3.00;99.90;4.20;97269.00;;;;5092116;28;20452;-67
2022/12/01 10:09:36;;;;;;;4.17;3.77;;;3.10;99.90;4.30;97263.00;;;;5101617;28;20795;-67
2022/12/01 10:12:30;;;;;;;4.73;3.33;;;3.00;99.90;4.30;97268.00;;;;5097432;28;20814;-67
2022/12/01 10:15:31;;;;;;;4.70;3.43;;;3.00;99.90;4.20;97265.00;;;;5102918;28;20440;-67
2022/12/01 10:18:37;;;;;;;4.23;3.00;;;3.00;99.90;4.30;97267.00;;;;5108158;28;20424;-67
2022/12/01 10:21:43;;;;;;;5.10;4.27;;;3.00;99.90;4.20;97263.00;;;;5102916;28;20234;-67
2022/12/01 10:24:49;;;;;;;7.20;5.13;;;3.00;99.90;4.30;97253.00;;;;5102224;28;20457;-67
2022/12/01 10:27:53;;;;;;;5.57;4.03;;;3.10;99.90;4.30;97247.00;;;;5098908;28;20198;-67
2022/12/01 10:30:49;;;;;;;3.83;3.03;;;3.10;99.90;4.30;97243.00;;;;5104604;28;20433;-67
2022/12/01 10:33:57;;;;;;;3.47;3.17;;;3.00;99.90;4.30;97248.00;;;;5107715;28;20439;-67
2022/12/01 10:36:46;;;;;;;3.77;3.33;;;3.10;99.90;4.50;97241.00;;;;5107936;28;20447;-67
2022/12/01 10:39:39;;;;;;;3.60;3.30;;;3.10;99.90;4.50;97247.00;;;;5105009;28;20670;-67
2022/12/01 10:42:34;;;;;;;3.33;3.03;;;3.10;99.90;4.60;97239.00;;;;5109689;28;20406;-67
2022/12/01 10:45:28;;;;;;;3.93;3.53;;;3.20;99.90;4.60;97237.00;;;;5105819;28;20468;-67
2022/12/01 10:48:19;;;;;;;3.80;3.50;;;3.20;99.90;4.60;97230.00;;;;5107273;28;20413;-67
2022/12/01 10:51:18;;;;;;;5.00;3.67;;;3.20;99.90;4.60;97236.00;;;;5105888;28;20701;-67
2022/12/01 10:54:10;;;;;;;5.43;3.50;;;3.20;99.90;4.60;97232.00;;;;5103672;28;20191;-67
2022/12/01 10:56:59;;;;;;;3.73;3.37;;;3.30;99.90;4.60;97233.00;;;;5089897;28;21094;-67
2022/12/01 10:59:52;;;;;;;5.27;4.30;;;3.30;99.90;4.60;97227.00;;;;5102534;28;20552;-67
2022/12/01 11:02:43;;;;;;;4.47;3.73;;;3.30;99.90;4.60;97232.00;;;;5107433;28;20198;-67
2022/12/01 11:05:42;;;;;;;3.57;3.30;;;3.30;99.90;4.50;97227.00;;;;5107239;28;20233;-67
2022/12/01 11:08:40;;;;;;;3.63;3.17;;;3.30;99.90;4.70;97222.00;;;;5105838;28;20194;-67
2022/12/01 11:11:33;;;;;;;5.23;4.47;;;3.40;99.90;4.80;97226.00;;;;5100807;28;20224;-67
2022/12/01 11:14:29;;;;;;;4.83;3.30;;;3.40;99.90;4.80;97223.00;;;;5097520;28;20584;-67
2022/12/01 11:17:34;;;;;;;3.93;3.37;;;3.40;99.90;4.80;97219.00;;;;5090405;28;20448;-67
2022/12/01 11:20:33;;;;;;;3.57;3.27;;;3.40;99.90;4.80;97220.00;;;;5104281;28;20230;-67
2022/12/01 11:23:28;;;;;;;3.53;3.23;;;3.40;99.90;4.80;97216.00;;;;5098341;28;20206;-67
2022/12/01 11:26:21;;;;;;;3.53;3.23;;;3.50;99.90;4.90;97215.00;;;;5106491;28;20205;-67
2022/12/01 11:29:31;;;;;;;3.90;2.60;;;3.50;99.90;5.00;97224.00;;;;5107702;28;20207;-67
2022/12/01 11:32:25;;;;;;;3.10;2.80;;;3.50;99.90;4.80;97218.00;;;;5099169;28;20218;-67
2022/12/01 11:35:20;;;;;;;4.13;3.10;;;3.50;99.90;4.90;97217.00;;;;5093782;28;20879;-67
2022/12/01 11:38:21;;;;;;;4.43;3.50;;;3.50;99.90;4.90;97219.00;;;;5096063;28;21057;-67
2022/12/01 11:41:31;;;;;;;3.33;3.00;;;3.50;99.90;4.90;97218.00;;;;5097077;28;20219;-67
2022/12/01 11:44:21;;;;;;;3.87;3.50;;;3.50;99.90;5.00;97214.00;;;;5105493;28;20215;-67
2022/12/01 11:47:25;;;;;;;3.60;3.30;;;3.60;99.90;4.90;97218.00;;;;5095816;28;20206;-67
2022/12/01 11:50:26;;;;;;;4.03;3.50;;;3.60;99.90;4.90;97217.00;;;;5092797;28;20230;-67
2022/12/01 11:53:30;;;;;;;3.57;3.27;;;3.60;99.90;4.90;97224.00;;;;5105206;28;20210;-66
2022/12/01 11:56:22;;;;;;;4.13;3.80;;;3.50;99.90;4.80;97221.00;;;;5102293;28;20217;-67
2022/12/01 11:59:14;;;;;;;5.07;3.00;;;3.60;99.90;4.80;97215.00;;;;5092293;28;20206;-67
2022/12/01 12:02:17;;;;;;;3.37;2.70;;;3.60;99.90;4.90;97219.00;;;;5095114;28;20219;-67
2022/12/01 12:05:45;;;;;;;4.83;3.80;;;3.50;99.90;4.80;97218.00;;;;5108284;28;20229;-66
2022/12/01 12:09:03;;;;;;;4.43;3.73;;;3.50;99.90;4.90;97218.00;;;;5101485;28;20207;-67
2022/12/01 12:12:05;;;;;;;4.77;4.20;;;3.50;99.90;4.90;97199.00;;;;5103987;28;20298;-67
2022/12/01 12:15:07;;;;;;;6.10;4.33;;;3.50;99.90;4.80;97213.00;;;;5109417;28;20209;-67
2022/12/01 12:18:17;;;;;;;6.90;3.60;;;2.60;99.90;4.90;97202.00;;;;5103934;28;20597;-67
2022/12/01 12:21:17;;;;;;;5.07;4.13;;;3.50;99.90;4.80;97202.00;;;;5106961;28;20237;-66
2022/12/01 12:24:37;;;;;;;4.00;3.60;;;3.60;99.90;4.80;97205.00;;;;5105483;28;20190;-66
2022/12/01 12:27:39;;;;;;;6.37;4.73;;;3.50;99.90;4.90;97197.00;;;;5107489;28;20213;-66
2022/12/01 12:30:30;;;;;;;3.50;3.30;;;3.50;99.90;4.80;97189.00;;;;5110181;28;20700;-66
2022/12/01 12:33:58;;;;;;;5.13;4.13;;;3.50;99.90;4.90;97193.00;;;;5109649;28;20199;-66
2022/12/01 12:36:59;;;;;;;5.10;4.13;;;3.50;99.90;4.90;97196.00;;;;5110549;28;20198;-67
2022/12/01 12:40:21;;;;;;;5.00;3.90;;;3.60;99.90;5.00;97201.00;;;;5106844;28;20198;-66
2022/12/01 12:43:27;;;;;;;4.80;4.40;;;3.60;99.90;4.90;97193.00;;;;5110544;28;20561;-66
2022/12/01 12:46:22;;;;;;;5.50;4.53;;;3.60;99.90;5.00;97196.00;;;;5110281;28;20240;-66
2022/12/01 12:49:27;;;;;;;4.40;3.80;;;3.60;99.90;5.00;97200.00;;;;5109133;28;20190;-67
2022/12/01 12:52:19;;;;;;;7.23;4.13;;;3.60;99.90;4.90;97200.00;;;;5104678;28;20202;-66
2022/12/01 12:55:15;;;;;;;3.77;3.47;;;3.60;99.90;4.90;97205.00;;;;5105957;28;20617;-66
2022/12/01 12:58:13;;;;;;;4.67;3.97;;;3.60;99.90;4.90;97201.00;;;;5111087;28;20236;-66
2022/12/01 13:01:07;;;;;;;5.53;4.27;;;3.60;99.90;4.90;97197.00;;;;5108522;28;20977;-66
2022/12/01 13:04:01;;;;;;;4.47;3.37;;;3.60;99.90;4.90;97194.00;;;;5108489;28;20203;-66
2022/12/01 13:07:01;;;;;;;5.07;4.23;;;3.60;99.90;4.90;97200.00;;;;5100893;28;20202;-66
2022/12/01 13:09:56;;;;;;;3.97;3.53;;;3.60;99.90;4.90;97202.00;;;;5106511;28;20202;-66
2022/12/01 13:12:59;;;;;;;7.97;5.03;;;3.60;99.90;5.00;97194.00;;;;5106554;28;20258;-66
2022/12/01 13:15:49;;;;;;;4.97;3.97;;;3.60;99.90;5.00;97195.00;;;;5110122;28;20202;-66
2022/12/01 13:18:42;;;;;;;5.50;4.60;;;3.60;99.90;5.00;97205.00;;;;5108451;28;20895;-67